sensor_id;sensor_type;location;lat;lon;timestamp;temperature;humidity
45383;DHT22;42455;51.660;5.824;2024-01-30T00:01:47;10.4;94.0
45383;DHT22;42455;51.660;5.824;2024-01-30T00:06:53;10.3;94.0
45383;DHT22;42455;51.660;5.824;2024-01-30T00:11:59;10.3;94.0
45383;DHT22;42455;51.660;5.824;2024-01-30T00:17:05;10.2;94.0
45383;DHT22;42455;51.660;5.824;2024-01-30T00:22:11;10.2;94.0
45383;DHT22;42455;51.660;5.824;2024-01-30T00:27:18;10.1;94.0
45383;DHT22;42455;51.660;5.824;2024-01-30T00:32:24;10.1;94.0
45383;DHT22;42455;51.660;5.824;2024-01-30T00:37:30;10.0;94.0
45383;DHT22;42455;51.660;5.824;2024-01-30T00:42:36;10.0;94.0
45383;DHT22;42455;51.660;5.824;2024-01-30T00:47:43;9.9;94.0
45383;DHT22;42455;51.660;5.824;2024-01-30T00:52:49;9.9;94.0
45383;DHT22;42455;51.660;5.824;2024-01-30T00:57:55;9.8;94.5
45383;DHT22;42455;51.660;5.824;2024-01-30T01:03:02;9.8;94.5
45383;DHT22;42455;51.660;5.824;2024-01-30T01:08:07;9.8;94.5
45383;DHT22;42455;51.660;5.824;2024-01-30T01:13:14;9.8;94.5
45383;DHT22;42455;51.660;5.824;2024-01-30T01:18:20;9.8;94.5
45383;DHT22;42455;51.660;5.824;2024-01-30T01:23:26;9.7;94.5
45383;DHT22;42455;51.660;5.824;2024-01-30T01:28:32;9.7;94.5
45383;DHT22;42455;51.660;5.824;2024-01-30T01:33:39;9.7;94.5
45383;DHT22;42455;51.660;5.824;2024-01-30T01:38:44;9.7;94.5
45383;DHT22;42455;51.660;5.824;2024-01-30T01:43:50;9.6;94.5
45383;DHT22;42455;51.660;5.824;2024-01-30T01:48:56;9.6;94.5
45383;DHT22;42455;51.660;5.824;2024-01-30T01:54:05;9.5;94.5
45383;DHT22;42455;51.660;5.824;2024-01-30T01:59:09;9.5;94.5
45383;DHT22;42455;51.660;5.824;2024-01-30T02:04:15;9.5;94.5
45383;DHT22;42455;51.660;5.824;2024-01-30T02:09:21;9.5;94.5
45383;DHT22;42455;51.660;5.824;2024-01-30T02:14:27;9.4;94.5
45383;DHT22;42455;51.660;5.824;2024-01-30T02:19:34;9.4;94.5
45383;DHT22;42455;51.660;5.824;2024-01-30T02:24:40;9.4;94.5
45383;DHT22;42455;51.660;5.824;2024-01-30T02:29:46;9.5;95.0
45383;DHT22;42455;51.660;5.824;2024-01-30T02:34:52;9.5;95.0
45383;DHT22;42455;51.660;5.824;2024-01-30T02:39:58;9.5;95.0
45383;DHT22;42455;51.660;5.824;2024-01-30T02:45:05;9.5;95.0
45383;DHT22;42455;51.660;5.824;2024-01-30T02:50:11;9.6;95.0
45383;DHT22;42455;51.660;5.824;2024-01-30T02:55:17;9.6;95.0
45383;DHT22;42455;51.660;5.824;2024-01-30T03:00:23;9.6;95.0
45383;DHT22;42455;51.660;5.824;2024-01-30T03:05:29;9.6;95.0
45383;DHT22;42455;51.660;5.824;2024-01-30T03:10:35;9.6;95.0
45383;DHT22;42455;51.660;5.824;2024-01-30T03:15:42;9.7;95.0
45383;DHT22;42455;51.660;5.824;2024-01-30T03:20:47;9.7;95.0
45383;DHT22;42455;51.660;5.824;2024-01-30T03:25:52;9.7;95.0
45383;DHT22;42455;51.660;5.824;2024-01-30T03:30:58;9.7;95.0
45383;DHT22;42455;51.660;5.824;2024-01-30T03:36:05;9.7;95.0
45383;DHT22;42455;51.660;5.824;2024-01-30T03:41:11;9.8;95.0
45383;DHT22;42455;51.660;5.824;2024-01-30T03:46:17;9.8;95.0
45383;DHT22;42455;51.660;5.824;2024-01-30T03:51:23;9.8;95.0
45383;DHT22;42455;51.660;5.824;2024-01-30T03:56:29;9.8;95.0
45383;DHT22;42455;51.660;5.824;2024-01-30T04:01:35;9.8;95.0
45383;DHT22;42455;51.660;5.824;2024-01-30T04:06:42;9.8;95.0
45383;DHT22;42455;51.660;5.824;2024-01-30T04:11:48;9.8;95.0
45383;DHT22;42455;51.660;5.824;2024-01-30T04:16:54;9.8;95.0
45383;DHT22;42455;51.660;5.824;2024-01-30T04:22:00;9.9;95.0
45383;DHT22;42455;51.660;5.824;2024-01-30T04:27:07;9.9;95.0
45383;DHT22;42455;51.660;5.824;2024-01-30T04:32:13;9.9;95.0
45383;DHT22;42455;51.660;5.824;2024-01-30T04:37:19;9.9;95.0
45383;DHT22;42455;51.660;5.824;2024-01-30T04:42:25;10.0;95.0
45383;DHT22;42455;51.660;5.824;2024-01-30T04:47:31;10.0;95.0
45383;DHT22;42455;51.660;5.824;2024-01-30T04:52:38;10.0;95.0
45383;DHT22;42455;51.660;5.824;2024-01-30T04:57:44;10.0;95.0
45383;DHT22;42455;51.660;5.824;2024-01-30T05:02:50;10.1;95.0
45383;DHT22;42455;51.660;5.824;2024-01-30T05:07:55;10.1;95.0
45383;DHT22;42455;51.660;5.824;2024-01-30T05:13:02;10.1;95.0
45383;DHT22;42455;51.660;5.824;2024-01-30T05:18:08;10.1;95.0
45383;DHT22;42455;51.660;5.824;2024-01-30T05:23:14;10.1;95.0
45383;DHT22;42455;51.660;5.824;2024-01-30T05:28:20;10.2;95.0
45383;DHT22;42455;51.660;5.824;2024-01-30T05:33:26;10.2;95.0
45383;DHT22;42455;51.660;5.824;2024-01-30T05:38:32;10.2;95.0
45383;DHT22;42455;51.660;5.824;2024-01-30T05:43:39;10.3;95.5
45383;DHT22;42455;51.660;5.824;2024-01-30T05:48:45;10.3;95.5
45383;DHT22;42455;51.660;5.824;2024-01-30T05:53:51;10.4;95.5
45383;DHT22;42455;51.660;5.824;2024-01-30T05:58:57;10.5;95.5
45383;DHT22;42455;51.660;5.824;2024-01-30T06:04:04;10.5;95.5
45383;DHT22;42455;51.660;5.824;2024-01-30T06:09:10;10.6;95.5
45383;DHT22;42455;51.660;5.824;2024-01-30T06:14:16;10.6;95.0
45383;DHT22;42455;51.660;5.824;2024-01-30T06:19:22;10.6;95.0
45383;DHT22;42455;51.660;5.824;2024-01-30T06:24:28;10.6;95.0
45383;DHT22;42455;51.660;5.824;2024-01-30T06:29:35;10.6;95.0
45383;DHT22;42455;51.660;5.824;2024-01-30T06:34:41;10.6;95.0
45383;DHT22;42455;51.660;5.824;2024-01-30T06:39:47;10.7;95.0
45383;DHT22;42455;51.660;5.824;2024-01-30T06:44:53;10.7;95.0
45383;DHT22;42455;51.660;5.824;2024-01-30T06:49:58;10.6;95.0
45383;DHT22;42455;51.660;5.824;2024-01-30T06:55:05;10.7;95.0
45383;DHT22;42455;51.660;5.824;2024-01-30T07:00:11;10.7;95.0
45383;DHT22;42455;51.660;5.824;2024-01-30T07:05:17;10.7;95.0
45383;DHT22;42455;51.660;5.824;2024-01-30T07:10:23;10.7;95.0
45383;DHT22;42455;51.660;5.824;2024-01-30T07:15:29;10.7;95.0
45383;DHT22;42455;51.660;5.824;2024-01-30T07:20:36;10.7;95.0
45383;DHT22;42455;51.660;5.824;2024-01-30T07:25:42;10.7;95.0
45383;DHT22;42455;51.660;5.824;2024-01-30T07:30:48;10.6;95.0
45383;DHT22;42455;51.660;5.824;2024-01-30T07:35:54;10.7;95.5
45383;DHT22;42455;51.660;5.824;2024-01-30T07:41:00;10.7;95.5
45383;DHT22;42455;51.660;5.824;2024-01-30T07:46:07;10.7;95.5
45383;DHT22;42455;51.660;5.824;2024-01-30T07:51:13;10.8;95.5
45383;DHT22;42455;51.660;5.824;2024-01-30T07:56:19;10.8;96.0
45383;DHT22;42455;51.660;5.824;2024-01-30T08:01:25;10.9;96.0
45383;DHT22;42455;51.660;5.824;2024-01-30T08:06:32;11.0;96.0
45383;DHT22;42455;51.660;5.824;2024-01-30T08:11:38;11.1;96.0
45383;DHT22;42455;51.660;5.824;2024-01-30T08:16:44;11.1;96.0
45383;DHT22;42455;51.660;5.824;2024-01-30T08:21:50;11.2;96.0
45383;DHT22;42455;51.660;5.824;2024-01-30T08:26:56;11.3;96.0
45383;DHT22;42455;51.660;5.824;2024-01-30T08:32:05;11.4;96.0
45383;DHT22;42455;51.660;5.824;2024-01-30T08:37:07;11.5;96.0
45383;DHT22;42455;51.660;5.824;2024-01-30T08:42:13;11.6;96.0
45383;DHT22;42455;51.660;5.824;2024-01-30T08:47:19;11.7;96.0
45383;DHT22;42455;51.660;5.824;2024-01-30T08:52:25;11.8;96.0
45383;DHT22;42455;51.660;5.824;2024-01-30T08:57:32;11.9;96.0
45383;DHT22;42455;51.660;5.824;2024-01-30T09:02:38;12.0;95.5
45383;DHT22;42455;51.660;5.824;2024-01-30T09:07:44;12.0;95.5
45383;DHT22;42455;51.660;5.824;2024-01-30T09:12:50;12.1;95.5
45383;DHT22;42455;51.660;5.824;2024-01-30T09:17:57;12.2;95.5
45383;DHT22;42455;51.660;5.824;2024-01-30T09:23:03;12.3;95.5
45383;DHT22;42455;51.660;5.824;2024-01-30T09:28:09;12.3;95.5
45383;DHT22;42455;51.660;5.824;2024-01-30T09:33:15;12.4;95.5
45383;DHT22;42455;51.660;5.824;2024-01-30T09:38:21;12.5;95.5
45383;DHT22;42455;51.660;5.824;2024-01-30T09:43:32;12.5;95.0
45383;DHT22;42455;51.660;5.824;2024-01-30T09:48:34;12.6;95.0
45383;DHT22;42455;51.660;5.824;2024-01-30T09:53:41;12.6;95.0
45383;DHT22;42455;51.660;5.824;2024-01-30T09:58:46;12.7;95.0
45383;DHT22;42455;51.660;5.824;2024-01-30T10:03:53;12.7;95.0
45383;DHT22;42455;51.660;5.824;2024-01-30T10:08:59;12.8;95.0
45383;DHT22;42455;51.660;5.824;2024-01-30T10:14:05;12.8;95.0
45383;DHT22;42455;51.660;5.824;2024-01-30T10:24:16;12.9;95.0
45383;DHT22;42455;51.660;5.824;2024-01-30T10:29:22;13.0;95.0
45383;DHT22;42455;51.660;5.824;2024-01-30T10:34:29;13.1;95.0
45383;DHT22;42455;51.660;5.824;2024-01-30T10:39:38;13.1;95.0
45383;DHT22;42455;51.660;5.824;2024-01-30T10:44:48;13.2;95.0
45383;DHT22;42455;51.660;5.824;2024-01-30T10:49:47;13.3;94.5
45383;DHT22;42455;51.660;5.824;2024-01-30T10:54:54;13.3;94.5
45383;DHT22;42455;51.660;5.824;2024-01-30T11:00:00;13.4;94.5
45383;DHT22;42455;51.660;5.824;2024-01-30T11:05:05;13.4;95.0
45383;DHT22;42455;51.660;5.824;2024-01-30T11:10:11;13.5;95.0
45383;DHT22;42455;51.660;5.824;2024-01-30T11:15:18;13.6;95.0
45383;DHT22;42455;51.660;5.824;2024-01-30T11:20:27;13.7;94.5
45383;DHT22;42455;51.660;5.824;2024-01-30T11:25:32;13.8;94.5
45383;DHT22;42455;51.660;5.824;2024-01-30T11:30:36;13.9;94.5
45383;DHT22;42455;51.660;5.824;2024-01-30T11:35:44;13.9;94.5
45383;DHT22;42455;51.660;5.824;2024-01-30T11:40:51;14.0;94.5
45383;DHT22;42455;51.660;5.824;2024-01-30T11:45:55;14.1;94.0
45383;DHT22;42455;51.660;5.824;2024-01-30T11:51:01;14.1;94.0
45383;DHT22;42455;51.660;5.824;2024-01-30T11:56:07;14.1;94.0
45383;DHT22;42455;51.660;5.824;2024-01-30T12:01:13;14.2;94.0
45383;DHT22;42455;51.660;5.824;2024-01-30T12:06:20;14.3;94.0
45383;DHT22;42455;51.660;5.824;2024-01-30T12:11:25;14.3;94.0
45383;DHT22;42455;51.660;5.824;2024-01-30T12:16:31;14.4;93.5
45383;DHT22;42455;51.660;5.824;2024-01-30T12:21:38;14.4;93.5
45383;DHT22;42455;51.660;5.824;2024-01-30T12:26:43;14.5;93.0
45383;DHT22;42455;51.660;5.824;2024-01-30T12:31:53;14.5;92.5
45383;DHT22;42455;51.660;5.824;2024-01-30T12:36:56;14.5;92.0
45383;DHT22;42455;51.660;5.824;2024-01-30T12:42:02;14.5;91.5
45383;DHT22;42455;51.660;5.824;2024-01-30T12:47:08;14.4;91.5
45383;DHT22;42455;51.660;5.824;2024-01-30T12:52:16;14.4;91.0
45383;DHT22;42455;51.660;5.824;2024-01-30T12:57:20;14.4;90.5
45383;DHT22;42455;51.660;5.824;2024-01-30T13:02:26;14.3;90.0
45383;DHT22;42455;51.660;5.824;2024-01-30T13:07:32;14.3;90.0
45383;DHT22;42455;51.660;5.824;2024-01-30T13:12:38;14.3;90.0
45383;DHT22;42455;51.660;5.824;2024-01-30T13:17:45;14.4;89.5
45383;DHT22;42455;51.660;5.824;2024-01-30T13:22:51;14.4;88.5
45383;DHT22;42455;51.660;5.824;2024-01-30T13:27:57;14.3;88.0
45383;DHT22;42455;51.660;5.824;2024-01-30T13:33:03;14.3;87.5
45383;DHT22;42455;51.660;5.824;2024-01-30T13:38:09;14.3;87.0
45383;DHT22;42455;51.660;5.824;2024-01-30T13:48:22;14.2;86.0
45383;DHT22;42455;51.660;5.824;2024-01-30T13:53:28;14.1;86.0
45383;DHT22;42455;51.660;5.824;2024-01-30T13:58:34;14.1;86.0
45383;DHT22;42455;51.660;5.824;2024-01-30T14:03:40;14.0;85.5
45383;DHT22;42455;51.660;5.824;2024-01-30T14:08:47;14.0;85.5
45383;DHT22;42455;51.660;5.824;2024-01-30T14:13:53;14.0;85.5
45383;DHT22;42455;51.660;5.824;2024-01-30T14:18:59;13.9;85.0
45383;DHT22;42455;51.660;5.824;2024-01-30T14:24:05;13.8;85.0
45383;DHT22;42455;51.660;5.824;2024-01-30T14:29:12;13.7;84.5
45383;DHT22;42455;51.660;5.824;2024-01-30T14:34:18;13.6;84.5
45383;DHT22;42455;51.660;5.824;2024-01-30T14:39:24;13.5;85.0
45383;DHT22;42455;51.660;5.824;2024-01-30T14:44:30;13.4;85.0
45383;DHT22;42455;51.660;5.824;2024-01-30T14:49:36;13.4;85.5
45383;DHT22;42455;51.660;5.824;2024-01-30T14:54:43;13.3;85.5
45383;DHT22;42455;51.660;5.824;2024-01-30T14:59:49;13.2;86.0
45383;DHT22;42455;51.660;5.824;2024-01-30T15:04:55;13.1;86.0
45383;DHT22;42455;51.660;5.824;2024-01-30T15:10:01;13.0;86.5
45383;DHT22;42455;51.660;5.824;2024-01-30T15:15:08;12.8;87.0
45383;DHT22;42455;51.660;5.824;2024-01-30T15:20:14;12.7;87.5
45383;DHT22;42455;51.660;5.824;2024-01-30T15:25:20;12.5;88.0
45383;DHT22;42455;51.660;5.824;2024-01-30T15:30:26;12.3;88.5
45383;DHT22;42455;51.660;5.824;2024-01-30T15:35:32;12.2;89.0
45383;DHT22;42455;51.660;5.824;2024-01-30T15:40:38;12.1;89.5
45383;DHT22;42455;51.660;5.824;2024-01-30T15:45:45;11.9;90.0
45383;DHT22;42455;51.660;5.824;2024-01-30T15:50:51;11.8;90.0
45383;DHT22;42455;51.660;5.824;2024-01-30T15:55:57;11.8;90.5
45383;DHT22;42455;51.660;5.824;2024-01-30T16:01:03;11.7;90.5
45383;DHT22;42455;51.660;5.824;2024-01-30T16:06:10;11.6;90.5
45383;DHT22;42455;51.660;5.824;2024-01-30T16:11:16;11.6;91.0
45383;DHT22;42455;51.660;5.824;2024-01-30T16:16:22;11.5;91.0
45383;DHT22;42455;51.660;5.824;2024-01-30T16:21:28;11.5;91.0
45383;DHT22;42455;51.660;5.824;2024-01-30T16:26:34;11.4;91.0
45383;DHT22;42455;51.660;5.824;2024-01-30T16:31:41;11.4;91.0
45383;DHT22;42455;51.660;5.824;2024-01-30T16:36:47;11.4;91.0
45383;DHT22;42455;51.660;5.824;2024-01-30T16:41:53;11.4;91.5
45383;DHT22;42455;51.660;5.824;2024-01-30T16:46:59;11.3;91.5
45383;DHT22;42455;51.660;5.824;2024-01-30T16:52:05;11.3;91.5
45383;DHT22;42455;51.660;5.824;2024-01-30T16:57:12;11.2;91.5
45383;DHT22;42455;51.660;5.824;2024-01-30T17:02:18;11.2;91.5
45383;DHT22;42455;51.660;5.824;2024-01-30T17:07:24;11.1;91.5
45383;DHT22;42455;51.660;5.824;2024-01-30T17:12:30;11.1;92.0
45383;DHT22;42455;51.660;5.824;2024-01-30T17:17:37;11.0;92.0
45383;DHT22;42455;51.660;5.824;2024-01-30T17:22:43;10.9;92.5
45383;DHT22;42455;51.660;5.824;2024-01-30T17:27:49;10.8;92.5
45383;DHT22;42455;51.660;5.824;2024-01-30T17:32:55;10.8;93.0
45383;DHT22;42455;51.660;5.824;2024-01-30T17:38:01;10.7;93.0
45383;DHT22;42455;51.660;5.824;2024-01-30T17:43:07;10.7;93.5
45383;DHT22;42455;51.660;5.824;2024-01-30T17:48:14;10.7;93.5
45383;DHT22;42455;51.660;5.824;2024-01-30T17:53:20;10.6;94.0
45383;DHT22;42455;51.660;5.824;2024-01-30T17:58:26;10.6;94.0
45383;DHT22;42455;51.660;5.824;2024-01-30T18:03:33;10.6;94.0
45383;DHT22;42455;51.660;5.824;2024-01-30T18:08:39;10.6;94.0
45383;DHT22;42455;51.660;5.824;2024-01-30T18:13:45;10.5;94.5
45383;DHT22;42455;51.660;5.824;2024-01-30T18:18:50;10.5;94.5
45383;DHT22;42455;51.660;5.824;2024-01-30T18:23:56;10.5;94.5
45383;DHT22;42455;51.660;5.824;2024-01-30T18:29:03;10.5;94.5
45383;DHT22;42455;51.660;5.824;2024-01-30T18:34:09;10.5;95.0
45383;DHT22;42455;51.660;5.824;2024-01-30T18:39:15;10.4;95.0
45383;DHT22;42455;51.660;5.824;2024-01-30T18:44:21;10.4;95.0
45383;DHT22;42455;51.660;5.824;2024-01-30T18:49:27;10.4;95.0
45383;DHT22;42455;51.660;5.824;2024-01-30T18:54:34;10.4;95.5
45383;DHT22;42455;51.660;5.824;2024-01-30T18:59:40;10.4;95.5
45383;DHT22;42455;51.660;5.824;2024-01-30T19:04:46;10.4;95.5
45383;DHT22;42455;51.660;5.824;2024-01-30T19:09:52;10.3;95.5
45383;DHT22;42455;51.660;5.824;2024-01-30T19:14:58;10.3;95.5
45383;DHT22;42455;51.660;5.824;2024-01-30T19:20:05;10.3;95.5
45383;DHT22;42455;51.660;5.824;2024-01-30T19:25:11;10.3;96.0
45383;DHT22;42455;51.660;5.824;2024-01-30T19:30:17;10.3;96.0
45383;DHT22;42455;51.660;5.824;2024-01-30T19:35:23;10.3;96.0
45383;DHT22;42455;51.660;5.824;2024-01-30T19:40:29;10.3;96.0
45383;DHT22;42455;51.660;5.824;2024-01-30T19:45:35;10.3;96.0
45383;DHT22;42455;51.660;5.824;2024-01-30T19:50:42;10.2;96.0
45383;DHT22;42455;51.660;5.824;2024-01-30T19:55:48;10.2;96.0
45383;DHT22;42455;51.660;5.824;2024-01-30T20:00:54;10.2;96.0
45383;DHT22;42455;51.660;5.824;2024-01-30T20:06:00;10.2;96.5
45383;DHT22;42455;51.660;5.824;2024-01-30T20:11:11;10.2;96.5
45383;DHT22;42455;51.660;5.824;2024-01-30T20:16:13;10.2;96.5
45383;DHT22;42455;51.660;5.824;2024-01-30T20:21:19;10.2;96.5
45383;DHT22;42455;51.660;5.824;2024-01-30T20:26:25;10.1;96.5
45383;DHT22;42455;51.660;5.824;2024-01-30T20:31:31;10.1;96.5
45383;DHT22;42455;51.660;5.824;2024-01-30T20:36:40;10.1;97.0
45383;DHT22;42455;51.660;5.824;2024-01-30T20:41:44;10.1;97.0
45383;DHT22;42455;51.660;5.824;2024-01-30T20:46:50;10.1;97.0
45383;DHT22;42455;51.660;5.824;2024-01-30T20:51:57;10.1;97.0
45383;DHT22;42455;51.660;5.824;2024-01-30T20:57:02;10.1;97.0
45383;DHT22;42455;51.660;5.824;2024-01-30T21:02:09;10.1;97.0
45383;DHT22;42455;51.660;5.824;2024-01-30T21:07:15;10.0;97.0
45383;DHT22;42455;51.660;5.824;2024-01-30T21:12:21;10.0;97.0
45383;DHT22;42455;51.660;5.824;2024-01-30T21:17:27;10.0;97.0
45383;DHT22;42455;51.660;5.824;2024-01-30T21:22:34;9.9;97.0
45383;DHT22;42455;51.660;5.824;2024-01-30T21:32:46;9.9;97.0
45383;DHT22;42455;51.660;5.824;2024-01-30T21:37:52;9.9;97.0
45383;DHT22;42455;51.660;5.824;2024-01-30T21:42:58;9.9;97.0
45383;DHT22;42455;51.660;5.824;2024-01-30T21:48:05;9.9;97.0
45383;DHT22;42455;51.660;5.824;2024-01-30T21:53:11;9.8;97.0
45383;DHT22;42455;51.660;5.824;2024-01-30T21:58:17;9.8;97.0
45383;DHT22;42455;51.660;5.824;2024-01-30T22:03:23;9.8;97.0
45383;DHT22;42455;51.660;5.824;2024-01-30T22:08:29;9.8;97.0
45383;DHT22;42455;51.660;5.824;2024-01-30T22:13:36;9.8;97.0
45383;DHT22;42455;51.660;5.824;2024-01-30T22:18:42;9.7;97.0
45383;DHT22;42455;51.660;5.824;2024-01-30T22:23:48;9.7;97.5
45383;DHT22;42455;51.660;5.824;2024-01-30T22:28:54;9.7;97.5
45383;DHT22;42455;51.660;5.824;2024-01-30T22:34:01;9.7;97.5
45383;DHT22;42455;51.660;5.824;2024-01-30T22:39:07;9.7;97.5
45383;DHT22;42455;51.660;5.824;2024-01-30T22:44:13;9.6;97.5
45383;DHT22;42455;51.660;5.824;2024-01-30T22:49:19;9.6;97.5
45383;DHT22;42455;51.660;5.824;2024-01-30T22:54:25;9.6;97.5
45383;DHT22;42455;51.660;5.824;2024-01-30T22:59:31;9.6;97.5
45383;DHT22;42455;51.660;5.824;2024-01-30T23:04:38;9.6;97.5
45383;DHT22;42455;51.660;5.824;2024-01-30T23:09:44;9.6;97.5
45383;DHT22;42455;51.660;5.824;2024-01-30T23:14:50;9.6;97.5
45383;DHT22;42455;51.660;5.824;2024-01-30T23:19:56;9.6;97.5
45383;DHT22;42455;51.660;5.824;2024-01-30T23:25:03;9.6;97.5
45383;DHT22;42455;51.660;5.824;2024-01-30T23:30:09;9.6;97.5
45383;DHT22;42455;51.660;5.824;2024-01-30T23:35:15;9.5;97.5
45383;DHT22;42455;51.660;5.824;2024-01-30T23:40:21;9.5;97.5
45383;DHT22;42455;51.660;5.824;2024-01-30T23:45:27;9.5;97.5
45383;DHT22;42455;51.660;5.824;2024-01-30T23:50:32;9.5;97.5
45383;DHT22;42455;51.660;5.824;2024-01-30T23:55:39;9.4;97.5
